• Join FlightAware (Why Join?)
  • Login
  • US Flag 
11:07AM EDT


 

Airport Tracker/Info


-or-


 

Live Flight TrackerFlight Track Log ✈ EJA122 ✈ 02-Jun-2013 ✈ KCMH - KLAN

Flight Track Log - Related Links

Times and Time Zones

All times are in EDT time to prevent confusion due to time zone crossing. See the EJA122 flight status page for this flight to view local times or setup timezone preferences in your user account.

Time Position Orientation Groundspeed Altitude Reporting Facility
EDT Latitude Longitude Course Direction KTS MPH feet Rate Location/Type
05:51PM 40.0031 -82.9019 291° West 137 158 1,300  Level Indianapolis Center
05:52PM 40.0208 -82.9611 291° West 237 273 3,800 1,200 Climbing Indianapolis Center
05:53PM 40.0950 -82.9722 353° North 261 300 3,900 1,140 Climbing Indianapolis Center
05:54PM 40.1692 -82.9764 358° North 266 306 6,200 2,640 Climbing Indianapolis Center
05:55PM 40.2481 -82.9803 358° North 276 318 9,400 2,940 Climbing Indianapolis Center
05:56PM 40.3453 -82.9828 359° North 293 337 12,300 2,280 Climbing Indianapolis Center
05:57PM 40.4331 -82.9825 360° North 310 357 14,200 1,740 Climbing Indianapolis Center
05:58PM 40.5272 -82.9767 North 330 380 15,900 1,800 Climbing Indianapolis Center
05:59PM 40.6086 -83.0247 336° Northwest 320 368 17,900 1,980 Climbing Indianapolis Center
06:00PM 40.6806 -83.0864 327° Northwest 308 354 20,000 1,920 Climbing Indianapolis Center
06:01PM 40.7544 -83.1486 327° Northwest 311 358 21,900 960 Climbing Indianapolis Center
06:02PM 40.8331 -83.2156 327° Northwest 330 380 22,000  Climbing Indianapolis Center
06:03PM 40.9247 -83.2922 328° Northwest 379 436 22,000  Level Indianapolis Center
06:04PM 41.0150 -83.3708 327° Northwest 395 455 22,000  Level Cleveland Center
06:05PM 41.1167 -83.4572 327° Northwest 411 473 22,000  Level Indianapolis Center
06:06PM 41.2067 -83.5392 326° Northwest 409 471 22,000  Level Cleveland Center
06:07PM 41.3067 -83.6239 328° Northwest 414 476 22,000  Level Cleveland Center
06:08PM 41.4044 -83.7089 327° Northwest 414 476 22,000  Level Cleveland Center
06:09PM 41.5042 -83.7969 327° Northwest 419 482 22,000  Level Cleveland Center
06:10PM 41.6081 -83.8825 328° Northwest 424 488 22,000  Level Cleveland Center
06:11PM 41.7075 -83.9711 326° Northwest 424 488 22,000  Level Cleveland Center
06:12PM 41.8072 -84.0600 326° Northwest 424 488 22,000 -240 Level Cleveland Center
06:13PM 41.9086 -84.1464 328° Northwest 424 488 21,600 -1,200 Descending Cleveland Center
06:14PM 42.0019 -84.2328 325° Northwest 418 481 19,600 -2,100 Descending Cleveland Center
06:15PM 42.1014 -84.3167 328° Northwest 401 461 17,400 -2,100 Descending Cleveland Center
06:16PM 42.1703 -84.3825 325° Northwest 364 419 15,500 -1,980 Descending Cleveland Center
06:17PM 42.2536 -84.4464 330° Northwest 352 405 13,500 -2,220 Descending Cleveland Center
06:18PM 42.3514 -84.4494 359° North 334 384 11,100 -2,280 Descending Cleveland Center
06:19PM 42.4328 -84.4489 360° North 320 368 9,000 -2,340 Descending Cleveland Center
06:20PM 42.5017 -84.4475 North 279 321 6,400 -2,640 Descending Cleveland Center
06:21PM 42.5642 -84.4483 359° North 243 280 3,800 -1,740 Descending Cleveland Center
06:22PM 42.6225 -84.4519 357° North 219 252 3,000 -420 Descending Cleveland Center
06:23PM 42.6844 -84.4672 350° North 207 238 3,000 -300 Level Cleveland Center
06:24PM 42.7317 -84.4900 340° North 180 207 2,400 -600 Descending Cleveland Center
06:25PM 42.7728 -84.5094 341° North 166 191 1,800 4,260 Descending Cleveland Center
06:26PM 42.8133 -84.5347 335° Northwest 166 191 11,000 9,180 Climbing Cleveland Center
06:28PM 42.7786 -84.5862 346° North  Level Estimated
06:35PM 42.7786 -84.5862 346° North  Level Estimated
06:36PM 42.7786 -84.5862 346° North  Level Estimated
06:37PM 42.7786 -84.5862 346° North  Level Estimated